createdAt,value
2023-03-29T00:00:30.204Z,1484.00
2023-03-29T00:01:36.172Z,1478.00
2023-03-29T00:02:31.298Z,1479.00
2023-03-29T00:03:30.312Z,1481.00
2023-03-29T00:04:30.267Z,1470.00
2023-03-29T00:05:30.202Z,1469.00
2023-03-29T00:06:30.193Z,1473.00
2023-03-29T00:07:30.322Z,1492.00
2023-03-29T00:08:30.180Z,1461.00
2023-03-29T00:09:30.188Z,1473.00
2023-03-29T00:10:30.248Z,1541.00
2023-03-29T00:11:30.219Z,1545.00
2023-03-29T00:12:30.260Z,1488.00
2023-03-29T00:13:30.315Z,1503.00
2023-03-29T00:14:30.372Z,1456.00
2023-03-29T00:15:30.420Z,1469.00
2023-03-29T00:16:30.478Z,1479.00
2023-03-29T00:17:30.520Z,1498.00
2023-03-29T00:18:30.574Z,1500.00
2023-03-29T00:19:30.607Z,1499.00
2023-03-29T00:20:30.641Z,1424.00
2023-03-29T00:21:30.714Z,1442.00
2023-03-29T00:22:30.742Z,1452.00
2023-03-29T00:23:30.798Z,1420.00
2023-03-29T00:24:30.859Z,1397.00
2023-03-29T00:25:30.907Z,1368.00
2023-03-29T00:26:30.946Z,1336.00
2023-03-29T00:27:31.004Z,1337.00
2023-03-29T00:28:31.049Z,1307.00
2023-03-29T00:29:31.106Z,1294.00
2023-03-29T00:30:31.126Z,1287.00
2023-03-29T00:31:31.240Z,1289.00
2023-03-29T00:32:31.369Z,1369.00
2023-03-29T00:33:31.296Z,1348.00
2023-03-29T00:34:31.326Z,1240.00
2023-03-29T00:35:31.378Z,1206.00
2023-03-29T00:36:31.424Z,1241.00
2023-03-29T00:37:31.498Z,1211.00
2023-03-29T00:38:31.553Z,1267.00
2023-03-29T00:39:31.592Z,1226.00
2023-03-29T00:40:31.635Z,1216.00
2023-03-29T00:41:31.680Z,1340.00
2023-03-29T00:42:31.742Z,1514.00
2023-03-29T00:43:31.774Z,1457.00
2023-03-29T00:44:31.840Z,1384.00
2023-03-29T00:45:31.874Z,1331.00
2023-03-29T00:46:32.033Z,1365.00
2023-03-29T00:47:31.998Z,1398.00
2023-03-29T00:48:32.014Z,1409.00
2023-03-29T00:49:32.078Z,1461.00
2023-03-29T00:50:32.129Z,1419.00
2023-03-29T00:51:32.173Z,1405.00
2023-03-29T00:52:32.211Z,1398.00
2023-03-29T00:53:32.277Z,1408.00
2023-03-29T00:54:32.394Z,1377.00
2023-03-29T00:55:32.410Z,1409.00
2023-03-29T00:56:32.424Z,1440.00
2023-03-29T00:57:32.501Z,1425.00
2023-03-29T00:58:32.541Z,1471.00
2023-03-29T00:59:32.626Z,1468.00
2023-03-29T01:00:32.673Z,1448.00
2023-03-29T01:01:32.712Z,1445.00
2023-03-29T01:02:32.859Z,1383.00
2023-03-29T01:03:32.975Z,1409.00
2023-03-29T01:04:32.874Z,1484.00
2023-03-29T01:05:32.921Z,1573.00
2023-03-29T01:06:33.047Z,1643.00
2023-03-29T01:07:33.041Z,1744.00
2023-03-29T01:08:33.110Z,1672.00
2023-03-29T01:09:33.144Z,1525.00
2023-03-29T01:10:33.209Z,1503.00
2023-03-29T01:11:33.239Z,1436.00
2023-03-29T01:12:33.313Z,1444.00
2023-03-29T01:13:33.349Z,1424.00
2023-03-29T01:14:33.390Z,1436.00
2023-03-29T01:15:33.458Z,1434.00
2023-03-29T01:16:33.649Z,1415.00
2023-03-29T01:17:33.611Z,1406.00
2023-03-29T01:18:33.628Z,1406.00
2023-03-29T01:19:33.680Z,1370.00
2023-03-29T01:20:33.724Z,1358.00
2023-03-29T01:21:33.778Z,1415.00
2023-03-29T01:22:33.843Z,1441.00
2023-03-29T01:23:33.881Z,1422.00
2023-03-29T01:24:33.932Z,1421.00
2023-03-29T01:25:34.019Z,1406.00
2023-03-29T01:26:34.070Z,1424.00
2023-03-29T01:27:34.143Z,1412.00
2023-03-29T01:28:34.193Z,1429.00
2023-03-29T01:29:34.264Z,1368.00
2023-03-29T01:30:34.294Z,1375.00
2023-03-29T01:31:34.368Z,1392.00
2023-03-29T01:32:34.400Z,1356.00
2023-03-29T01:33:34.469Z,1317.00
2023-03-29T01:34:34.513Z,1285.00
2023-03-29T01:35:34.599Z,1328.00
2023-03-29T01:36:34.607Z,1310.00
2023-03-29T01:37:34.677Z,1317.00
2023-03-29T01:38:34.746Z,1289.00
2023-03-29T01:39:34.860Z,1255.00
2023-03-29T01:40:34.842Z,1330.00
2023-03-29T01:41:34.885Z,1267.00
2023-03-29T01:42:34.929Z,1266.00
2023-03-29T01:43:34.982Z,1266.00
2023-03-29T01:44:35.034Z,1268.00
2023-03-29T01:45:35.098Z,1258.00
2023-03-29T01:46:35.187Z,1292.00
2023-03-29T01:47:35.233Z,1300.00
2023-03-29T01:48:35.279Z,1296.00
2023-03-29T01:49:35.310Z,1292.00
2023-03-29T01:50:35.386Z,1273.00
2023-03-29T01:51:35.411Z,1262.00
2023-03-29T01:52:35.464Z,1296.00
2023-03-29T01:53:35.540Z,1295.00
2023-03-29T01:54:35.571Z,1302.00
2023-03-29T01:55:35.634Z,1284.00
2023-03-29T01:56:35.681Z,1283.00
2023-03-29T01:57:35.751Z,1239.00
2023-03-29T01:58:35.808Z,1288.00
2023-03-29T01:59:35.862Z,1258.00
2023-03-29T02:00:35.908Z,1270.00
2023-03-29T02:01:36.094Z,1329.00
2023-03-29T02:02:36.079Z,1316.00
2023-03-29T02:03:36.147Z,1264.00
2023-03-29T02:04:36.132Z,1251.00
2023-03-29T02:05:36.207Z,1272.00
2023-03-29T02:06:36.266Z,1264.00
2023-03-29T02:07:36.303Z,1296.00
2023-03-29T02:08:36.373Z,1271.00
2023-03-29T02:09:36.420Z,1270.00
2023-03-29T02:10:36.520Z,1261.00
2023-03-29T02:11:36.552Z,1248.00
2023-03-29T02:12:36.609Z,1221.00
2023-03-29T02:13:36.667Z,1251.00
2023-03-29T02:14:36.712Z,1212.00
2023-03-29T02:15:36.781Z,1202.00
2023-03-29T02:16:36.832Z,1224.00
2023-03-29T02:17:36.905Z,1207.00
2023-03-29T02:18:36.924Z,1267.00
2023-03-29T02:19:36.987Z,1215.00
2023-03-29T02:20:37.032Z,1206.00
2023-03-29T02:21:37.106Z,1229.00
2023-03-29T02:22:37.208Z,1222.00
2023-03-29T02:23:37.290Z,1237.00
2023-03-29T02:24:37.260Z,1223.00
2023-03-29T02:25:37.316Z,1194.00
2023-03-29T02:26:37.403Z,1211.00
2023-03-29T02:27:37.453Z,1185.00
2023-03-29T02:28:37.511Z,1172.00
2023-03-29T02:29:37.557Z,1243.00
2023-03-29T02:30:37.651Z,1244.00
2023-03-29T02:31:37.751Z,1256.00
2023-03-29T02:32:37.822Z,1213.00
2023-03-29T02:33:37.797Z,1306.00
2023-03-29T02:34:37.867Z,1220.00
2023-03-29T02:35:37.989Z,1217.00
2023-03-29T02:36:37.967Z,1263.00
2023-03-29T02:37:38.035Z,1213.00
2023-03-29T02:38:38.087Z,1227.00
2023-03-29T02:39:38.138Z,1264.00
2023-03-29T02:40:38.207Z,1259.00
2023-03-29T02:41:38.234Z,1252.00
2023-03-29T02:42:38.298Z,1240.00
2023-03-29T02:43:38.372Z,1269.00
2023-03-29T02:44:38.415Z,1308.00
2023-03-29T02:45:38.552Z,1303.00
2023-03-29T02:46:38.546Z,1334.00
2023-03-29T02:47:38.623Z,1335.00
2023-03-29T02:48:38.651Z,1353.00
2023-03-29T02:49:38.700Z,1345.00
2023-03-29T02:50:38.762Z,1344.00
2023-03-29T02:51:38.821Z,1333.00
2023-03-29T02:52:38.882Z,1360.00
2023-03-29T02:53:38.967Z,1369.00
2023-03-29T02:54:39.015Z,1368.00
2023-03-29T02:55:39.078Z,1381.00
2023-03-29T02:56:39.154Z,1442.00
2023-03-29T02:57:39.179Z,1459.00
2023-03-29T02:58:39.263Z,1488.00
2023-03-29T02:59:39.314Z,1468.00
2023-03-29T03:00:39.386Z,1419.00
2023-03-29T03:01:39.452Z,1409.00
2023-03-29T03:02:39.548Z,1413.00
2023-03-29T03:03:39.622Z,1500.00
2023-03-29T03:04:39.597Z,1488.00
2023-03-29T03:05:39.647Z,1491.00
2023-03-29T03:06:39.725Z,1506.00
2023-03-29T03:07:39.878Z,1474.00
2023-03-29T03:08:39.847Z,1490.00
2023-03-29T03:09:39.889Z,1466.00
2023-03-29T03:10:39.958Z,1477.00
2023-03-29T03:11:40.018Z,1457.00
2023-03-29T03:12:40.074Z,1484.00
2023-03-29T03:13:40.131Z,1491.00
2023-03-29T03:14:40.208Z,1473.00
2023-03-29T03:15:40.257Z,1522.00
2023-03-29T03:16:40.367Z,1511.00
2023-03-29T03:17:40.417Z,1476.00
2023-03-29T03:18:40.421Z,1527.00
2023-03-29T03:19:40.485Z,1503.00
2023-03-29T03:20:40.552Z,1498.00
2023-03-29T03:21:40.587Z,1441.00
2023-03-29T03:22:40.636Z,1464.00
2023-03-29T03:23:40.692Z,1490.00
2023-03-29T03:24:40.757Z,1447.00
2023-03-29T03:25:40.827Z,1460.00
2023-03-29T03:26:40.884Z,1508.00
2023-03-29T03:27:40.911Z,1486.00
2023-03-29T03:28:40.968Z,1465.00
2023-03-29T03:29:41.142Z,1470.00
2023-03-29T03:30:41.092Z,1488.00
2023-03-29T03:31:41.216Z,1536.00
2023-03-29T03:32:41.248Z,1540.00
2023-03-29T03:33:41.262Z,1492.00
2023-03-29T03:34:41.318Z,1501.00
2023-03-29T03:35:41.383Z,1512.00
2023-03-29T03:36:41.441Z,1474.00
2023-03-29T03:37:41.500Z,1551.00
2023-03-29T03:38:41.550Z,1506.00
2023-03-29T03:39:41.605Z,1524.00
2023-03-29T03:40:41.644Z,1494.00
2023-03-29T03:41:41.742Z,1460.00
2023-03-29T03:42:41.798Z,1498.00
2023-03-29T03:43:41.814Z,1507.00
2023-03-29T03:44:41.897Z,1477.00
2023-03-29T03:45:41.935Z,1445.00
2023-03-29T03:46:41.974Z,1464.00
2023-03-29T03:47:42.075Z,1483.00
2023-03-29T03:48:42.083Z,1571.00
2023-03-29T03:49:42.126Z,1574.00
2023-03-29T03:50:42.213Z,1586.00
2023-03-29T03:51:42.260Z,1505.00
2023-03-29T03:52:42.297Z,1445.00
2023-03-29T03:53:42.387Z,1403.00
2023-03-29T03:54:42.421Z,1425.00
2023-03-29T03:55:42.461Z,1443.00
2023-03-29T03:56:42.526Z,1441.00
2023-03-29T03:57:42.574Z,1488.00
2023-03-29T03:58:42.670Z,1552.00
2023-03-29T03:59:42.691Z,1519.00
2023-03-29T04:00:42.774Z,1459.00
2023-03-29T04:01:42.823Z,1471.00
2023-03-29T04:02:42.952Z,1426.00
2023-03-29T04:03:43.066Z,1440.00
2023-03-29T04:04:43.000Z,1417.00
2023-03-29T04:05:43.057Z,1427.00
2023-03-29T04:06:43.884Z,1420.00
2023-03-29T04:07:43.174Z,1422.00
2023-03-29T04:08:43.246Z,1399.00
2023-03-29T04:09:43.287Z,1440.00
2023-03-29T04:10:43.354Z,1424.00
2023-03-29T04:11:43.409Z,1488.00
2023-03-29T04:12:43.459Z,1402.00
2023-03-29T04:13:43.527Z,1370.00
2023-03-29T04:14:43.569Z,1420.00
2023-03-29T04:15:43.655Z,1443.00
2023-03-29T04:16:43.772Z,1475.00
2023-03-29T04:17:43.852Z,1448.00
2023-03-29T04:18:43.917Z,1410.00
2023-03-29T04:19:43.847Z,1437.00
2023-03-29T04:20:43.914Z,1513.00
2023-03-29T04:21:43.943Z,1539.00
2023-03-29T04:22:44.005Z,1569.00
2023-03-29T04:23:44.057Z,1555.00
2023-03-29T04:24:44.134Z,1503.00
2023-03-29T04:25:44.154Z,1425.00
2023-03-29T04:26:44.228Z,1400.00
2023-03-29T04:27:44.281Z,1392.00
2023-03-29T04:28:44.355Z,1393.00
2023-03-29T04:29:44.411Z,1445.00
2023-03-29T04:30:44.453Z,1503.00
2023-03-29T04:31:44.561Z,1479.00
2023-03-29T04:32:44.595Z,1438.00
2023-03-29T04:33:44.634Z,1387.00
2023-03-29T04:34:44.706Z,1407.00
2023-03-29T04:35:44.766Z,1370.00
2023-03-29T04:36:44.801Z,1390.00
2023-03-29T04:37:44.866Z,1387.00
2023-03-29T04:38:47.578Z,1442.00
2023-03-29T04:39:44.949Z,1414.00
2023-03-29T04:40:44.924Z,1404.00
2023-03-29T04:41:44.903Z,1434.00
2023-03-29T04:42:44.912Z,1459.00
2023-03-29T04:43:44.901Z,1427.00
2023-03-29T04:44:44.901Z,1433.00
2023-03-29T04:45:44.882Z,1435.00
2023-03-29T04:46:44.902Z,1445.00
2023-03-29T04:47:44.909Z,1446.00
2023-03-29T04:48:44.865Z,1454.00
2023-03-29T04:49:44.857Z,1492.00
2023-03-29T04:50:44.830Z,1493.00
2023-03-29T04:51:44.833Z,1436.00
2023-03-29T04:52:44.833Z,1474.00
2023-03-29T04:53:44.820Z,1440.00
2023-03-29T04:54:44.819Z,1533.00
2023-03-29T04:55:44.802Z,1547.00
2023-03-29T04:56:44.845Z,1658.00
2023-03-29T04:57:44.793Z,1695.00
2023-03-29T04:58:44.804Z,1575.00
2023-03-29T04:59:44.803Z,1523.00
2023-03-29T05:00:44.760Z,1507.00
2023-03-29T05:01:44.811Z,1477.00
2023-03-29T05:02:44.801Z,1525.00
2023-03-29T05:03:44.768Z,1561.00
2023-03-29T05:04:44.768Z,1505.00
2023-03-29T05:05:44.739Z,1493.00
2023-03-29T05:06:44.732Z,1474.00
2023-03-29T05:07:44.727Z,1537.00
2023-03-29T05:08:44.745Z,1523.00
2023-03-29T05:09:44.698Z,1578.00
2023-03-29T05:10:44.689Z,1583.00
2023-03-29T05:11:44.698Z,1567.00
2023-03-29T05:12:44.675Z,1516.00
2023-03-29T05:13:44.696Z,1537.00
2023-03-29T05:14:44.728Z,1515.00
2023-03-29T05:15:44.776Z,1556.00
2023-03-29T05:16:44.889Z,1595.00
2023-03-29T05:17:44.915Z,1647.00
2023-03-29T05:18:44.967Z,1691.00
2023-03-29T05:19:45.016Z,1631.00
2023-03-29T05:20:45.076Z,1624.00
2023-03-29T05:21:45.737Z,1600.00
2023-03-29T05:22:45.185Z,1608.00
2023-03-29T05:23:45.267Z,1594.00
2023-03-29T05:24:45.311Z,1605.00
2023-03-29T05:25:45.831Z,1628.00
2023-03-29T05:26:45.453Z,1620.00
2023-03-29T05:27:45.498Z,1641.00
2023-03-29T05:28:45.540Z,1722.00
2023-03-29T05:29:45.596Z,1787.00
2023-03-29T05:30:45.768Z,1879.00
2023-03-29T05:31:45.748Z,2342.00
2023-03-29T05:32:45.774Z,1947.00
2023-03-29T05:33:45.783Z,1899.00
2023-03-29T05:34:45.812Z,1957.00
2023-03-29T05:35:45.854Z,1961.00
2023-03-29T05:36:45.872Z,1956.00
2023-03-29T05:37:45.931Z,2023.00
2023-03-29T05:38:45.938Z,2003.00
2023-03-29T05:39:45.990Z,1918.00
2023-03-29T05:40:46.007Z,2005.00
2023-03-29T05:41:46.025Z,2025.00
2023-03-29T05:42:46.071Z,2046.00
2023-03-29T05:43:46.112Z,2142.00
2023-03-29T05:44:46.110Z,2183.00
2023-03-29T05:45:46.171Z,2259.00
2023-03-29T05:46:46.152Z,2276.00
2023-03-29T05:47:46.199Z,2303.00
2023-03-29T05:48:46.178Z,2351.00
2023-03-29T05:49:46.184Z,2390.00
2023-03-29T05:50:46.419Z,2421.00
2023-03-29T05:51:46.225Z,2424.00
2023-03-29T05:52:46.214Z,2483.00
2023-03-29T05:53:46.253Z,2495.00
2023-03-29T05:54:46.253Z,2500.00
2023-03-29T05:55:46.274Z,2519.00
2023-03-29T05:56:46.310Z,2531.00
2023-03-29T05:57:46.265Z,2567.00
2023-03-29T05:58:46.278Z,2581.00
2023-03-29T05:59:46.288Z,2569.00
2023-03-29T06:00:46.297Z,2589.00
2023-03-29T06:01:46.282Z,2596.00
2023-03-29T06:02:46.343Z,2577.00
2023-03-29T06:03:46.475Z,2573.00
2023-03-29T06:04:46.313Z,2595.00
2023-03-29T06:05:48.385Z,2610.00
2023-03-29T06:06:46.246Z,2588.00
2023-03-29T06:07:46.248Z,2599.00
2023-03-29T06:08:46.238Z,2594.00
2023-03-29T06:09:46.226Z,2599.00
2023-03-29T06:10:46.253Z,2620.00
2023-03-29T06:11:46.208Z,2611.00
2023-03-29T06:12:46.201Z,2607.00
2023-03-29T06:13:46.204Z,2608.00
2023-03-29T06:14:46.205Z,2625.00
2023-03-29T06:15:46.205Z,2637.00
2023-03-29T06:16:46.288Z,2617.00
2023-03-29T06:17:46.188Z,2638.00
2023-03-29T06:18:46.173Z,2653.00
2023-03-29T06:19:46.168Z,2646.00
2023-03-29T06:20:46.150Z,2576.00
2023-03-29T06:21:46.156Z,2574.00
2023-03-29T06:22:46.155Z,2627.00
2023-03-29T06:23:46.138Z,2642.00
2023-03-29T06:24:46.150Z,2605.00
2023-03-29T06:25:46.358Z,2518.00
2023-03-29T06:26:46.124Z,2589.00
2023-03-29T06:27:46.095Z,2633.00
2023-03-29T06:28:46.120Z,2660.00
2023-03-29T06:29:46.098Z,2688.00
2023-03-29T06:30:46.164Z,2689.00
2023-03-29T06:31:46.212Z,2604.00
2023-03-29T06:32:46.091Z,2559.00
2023-03-29T06:33:46.084Z,2613.00
2023-03-29T06:34:46.057Z,2624.00
2023-03-29T06:35:46.096Z,2682.00
2023-03-29T06:36:46.044Z,2705.00
2023-03-29T06:37:46.044Z,2729.00
2023-03-29T06:38:46.031Z,2759.00
2023-03-29T06:39:46.038Z,2773.00
2023-03-29T06:40:46.011Z,2794.00
2023-03-29T06:41:46.019Z,2815.00
2023-03-29T06:42:46.012Z,2815.00
2023-03-29T06:43:46.010Z,2815.00
2023-03-29T06:44:45.997Z,2822.00
2023-03-29T06:45:45.979Z,2836.00
2023-03-29T06:46:46.400Z,2865.00
2023-03-29T06:47:46.293Z,2866.00
2023-03-29T06:48:46.121Z,2876.00
2023-03-29T06:49:46.161Z,2877.00
2023-03-29T06:50:46.216Z,2840.00
2023-03-29T06:51:46.260Z,2856.00
2023-03-29T06:52:46.369Z,2846.00
2023-03-29T06:53:46.367Z,2806.00
2023-03-29T06:54:46.428Z,2847.00
2023-03-29T06:55:46.474Z,2849.00
2023-03-29T06:56:46.565Z,2817.00
2023-03-29T06:57:46.555Z,2804.00
2023-03-29T06:58:46.598Z,2810.00
2023-03-29T06:59:46.633Z,2767.00
2023-03-29T07:00:46.700Z,2736.00
2023-03-29T07:01:46.761Z,2738.00
2023-03-29T07:02:47.064Z,2706.00
2023-03-29T07:03:47.002Z,2747.00
2023-03-29T07:04:46.864Z,2759.00
2023-03-29T07:05:46.880Z,2752.00
2023-03-29T07:06:46.946Z,2734.00
2023-03-29T07:07:47.392Z,2723.00
2023-03-29T07:08:47.010Z,2741.00
2023-03-29T07:09:47.053Z,2740.00
2023-03-29T07:10:47.089Z,2728.00
2023-03-29T07:11:47.171Z,2728.00
2023-03-29T07:12:47.176Z,2720.00
2023-03-29T07:13:47.193Z,2716.00
2023-03-29T07:14:47.248Z,2723.00
2023-03-29T07:15:47.309Z,2731.00
2023-03-29T07:16:47.474Z,2695.00
2023-03-29T07:17:47.376Z,2700.00
2023-03-29T07:18:47.388Z,2684.00
2023-03-29T07:19:47.428Z,2671.00
2023-03-29T07:20:47.486Z,2650.00
2023-03-29T07:21:47.877Z,2669.00
2023-03-29T07:22:47.550Z,2618.00
2023-03-29T07:23:47.574Z,2634.00
2023-03-29T07:24:47.630Z,2607.00
2023-03-29T07:25:47.664Z,2624.00
2023-03-29T07:27:00.054Z,2553.00
2023-03-29T07:27:49.184Z,2555.00
2023-03-29T07:28:47.691Z,2561.00
2023-03-29T07:29:48.361Z,2573.00
2023-03-29T07:30:47.677Z,2600.00
2023-03-29T07:31:47.685Z,2666.00
2023-03-29T07:32:48.262Z,2666.00
2023-03-29T07:33:47.757Z,2675.00
2023-03-29T07:34:47.661Z,2692.00
2023-03-29T07:35:47.684Z,2679.00
2023-03-29T07:36:47.631Z,2668.00
2023-03-29T07:37:47.873Z,2660.00
2023-03-29T07:38:47.661Z,2661.00
2023-03-29T07:39:47.704Z,2639.00
2023-03-29T07:40:47.726Z,2643.00
2023-03-29T07:41:47.769Z,2631.00
2023-03-29T07:42:47.796Z,2637.00
2023-03-29T07:43:47.798Z,2639.00
2023-03-29T07:44:47.892Z,2626.00
2023-03-29T07:45:47.846Z,2628.00
2023-03-29T07:46:47.864Z,2617.00
2023-03-29T07:47:47.895Z,2623.00
2023-03-29T07:48:47.904Z,2604.00
2023-03-29T07:49:48.384Z,2603.00
2023-03-29T07:50:47.931Z,2594.00
2023-03-29T07:51:47.973Z,2587.00
2023-03-29T07:52:47.955Z,2636.00
2023-03-29T07:53:47.977Z,2694.00
2023-03-29T07:54:48.370Z,2701.00
2023-03-29T07:55:48.029Z,2712.00
2023-03-29T07:56:48.057Z,2725.00
2023-03-29T07:57:48.050Z,2729.00
2023-03-29T07:58:48.067Z,2699.00
2023-03-29T07:59:48.397Z,2706.00
2023-03-29T08:00:48.111Z,2698.00
2023-03-29T08:01:48.115Z,2661.00
2023-03-29T08:02:48.164Z,2670.00
2023-03-29T08:03:48.225Z,2663.00
2023-03-29T08:04:48.130Z,2640.00
2023-03-29T08:05:48.124Z,2574.00
2023-03-29T08:06:48.129Z,2620.00
2023-03-29T08:07:48.134Z,2628.00
2023-03-29T08:08:48.131Z,2500.00
2023-03-29T08:09:48.370Z,2506.00
2023-03-29T08:10:48.145Z,2556.00
2023-03-29T08:11:48.200Z,2543.00
2023-03-29T08:12:48.167Z,2550.00
2023-03-29T08:13:48.173Z,2543.00
2023-03-29T08:14:48.428Z,2527.00
2023-03-29T08:15:48.185Z,2470.00
2023-03-29T08:16:48.210Z,2450.00
2023-03-29T08:17:48.273Z,2423.00
2023-03-29T08:18:48.226Z,2404.00
2023-03-29T08:19:51.245Z,2394.00
2023-03-29T08:20:48.382Z,2343.00
2023-03-29T08:21:48.195Z,2354.00
2023-03-29T08:22:48.199Z,2373.00
2023-03-29T08:23:48.170Z,2355.00
2023-03-29T08:24:48.182Z,2359.00
2023-03-29T08:25:48.393Z,2386.00
2023-03-29T08:26:48.163Z,2401.00
2023-03-29T08:27:48.388Z,2384.00
2023-03-29T08:28:48.132Z,2395.00
2023-03-29T08:29:48.149Z,2426.00
2023-03-29T08:30:48.193Z,2444.00
2023-03-29T08:31:48.136Z,2534.00
2023-03-29T08:32:50.483Z,2318.00
2023-03-29T08:33:48.110Z,1568.00
2023-03-29T08:34:48.109Z,1503.00
2023-03-29T08:35:48.103Z,1656.00
2023-03-29T08:36:48.081Z,1711.00
2023-03-29T08:37:48.390Z,1748.00
2023-03-29T08:38:48.410Z,1753.00
2023-03-29T08:39:48.090Z,1783.00
2023-03-29T08:40:48.073Z,1808.00
2023-03-29T08:41:48.067Z,1870.00
2023-03-29T08:42:48.045Z,1967.00
2023-03-29T08:43:48.410Z,2066.00
2023-03-29T08:44:48.038Z,2120.00
2023-03-29T08:45:50.797Z,2158.00
2023-03-29T08:46:48.073Z,2160.00
2023-03-29T08:47:48.074Z,2172.00
2023-03-29T08:48:48.019Z,2208.00
2023-03-29T08:49:48.018Z,2255.00
2023-03-29T08:50:48.079Z,2307.00
2023-03-29T08:51:48.000Z,2318.00
2023-03-29T08:52:47.977Z,2331.00
2023-03-29T08:53:48.000Z,2354.00
2023-03-29T08:54:47.976Z,2336.00
2023-03-29T08:55:47.977Z,2337.00
2023-03-29T08:56:48.001Z,2353.00
2023-03-29T08:57:47.935Z,2359.00
2023-03-29T08:58:47.941Z,2334.00
2023-03-29T08:59:47.940Z,2382.00
2023-03-29T09:00:47.910Z,2373.00
2023-03-29T09:01:48.721Z,2339.00
2023-03-29T09:02:47.924Z,2370.00
2023-03-29T09:03:48.095Z,2361.00
2023-03-29T09:04:47.904Z,2359.00
2023-03-29T09:05:47.894Z,2351.00
2023-03-29T09:06:47.911Z,2342.00
2023-03-29T09:07:47.895Z,2325.00
2023-03-29T09:08:47.942Z,2316.00
2023-03-29T09:09:47.849Z,2327.00
2023-03-29T09:10:47.848Z,2325.00
2023-03-29T09:11:47.847Z,2334.00
2023-03-29T09:12:47.852Z,2328.00
2023-03-29T09:13:47.849Z,2318.00
2023-03-29T09:14:47.823Z,2318.00
2023-03-29T09:15:47.829Z,2329.00
2023-03-29T09:16:47.828Z,2327.00
2023-03-29T09:17:49.683Z,2337.00
2023-03-29T09:18:47.790Z,2330.00
2023-03-29T09:19:47.823Z,2345.00
2023-03-29T09:20:47.787Z,2311.00
2023-03-29T09:21:47.780Z,2310.00
2023-03-29T09:22:47.900Z,2309.00
2023-03-29T09:23:47.771Z,2304.00
2023-03-29T09:24:47.748Z,2314.00
2023-03-29T09:25:53.495Z,2304.00
2023-03-29T09:26:48.726Z,2302.00
2023-03-29T09:27:47.921Z,2219.00
2023-03-29T09:28:47.727Z,2241.00
2023-03-29T09:29:47.718Z,2254.00
2023-03-29T09:30:47.720Z,2225.00
2023-03-29T09:31:47.773Z,2199.00
2023-03-29T09:32:47.992Z,2145.00
2023-03-29T09:33:47.903Z,2180.00
2023-03-29T09:34:47.692Z,2232.00
2023-03-29T09:35:47.721Z,2250.00
2023-03-29T09:36:47.652Z,2258.00
2023-03-29T09:37:47.682Z,2248.00
2023-03-29T09:38:47.649Z,2182.00
2023-03-29T09:39:47.679Z,2158.00
2023-03-29T09:40:47.655Z,2111.00
2023-03-29T09:41:47.620Z,2022.00
2023-03-29T09:42:47.625Z,1985.00
2023-03-29T09:43:47.650Z,1993.00
2023-03-29T09:44:47.613Z,1969.00
2023-03-29T09:45:47.661Z,1906.00
2023-03-29T09:46:47.586Z,1939.00
2023-03-29T09:47:47.666Z,1906.00
2023-03-29T09:48:47.923Z,1836.00
2023-03-29T09:49:47.565Z,1782.00
2023-03-29T09:50:47.580Z,1775.00
2023-03-29T09:51:47.564Z,1771.00
2023-03-29T09:52:47.554Z,1774.00
2023-03-29T09:53:47.532Z,1826.00
2023-03-29T09:54:47.537Z,1835.00
2023-03-29T09:55:49.098Z,1847.00
2023-03-29T09:56:47.547Z,1842.00
2023-03-29T09:57:47.517Z,1815.00
2023-03-29T09:58:47.503Z,1806.00
2023-03-29T09:59:47.521Z,1789.00
2023-03-29T10:00:47.511Z,1768.00
2023-03-29T10:01:47.560Z,1766.00
2023-03-29T10:02:47.530Z,1776.00
2023-03-29T10:03:47.943Z,1785.00
2023-03-29T10:04:47.921Z,1808.00
2023-03-29T10:05:47.446Z,1777.00
2023-03-29T10:06:47.448Z,1805.00
2023-03-29T10:07:47.449Z,1736.00
2023-03-29T10:08:47.437Z,1723.00
2023-03-29T10:09:47.436Z,1722.00
2023-03-29T10:10:47.420Z,1680.00
2023-03-29T10:11:47.393Z,1627.00
2023-03-29T10:12:47.399Z,1595.00
2023-03-29T10:13:47.382Z,1656.00
2023-03-29T10:14:47.375Z,1609.00
2023-03-29T10:15:47.364Z,1573.00
2023-03-29T10:16:47.405Z,1630.00
2023-03-29T10:17:47.426Z,1615.00
2023-03-29T10:18:47.358Z,1609.00
2023-03-29T10:19:47.425Z,1638.00
2023-03-29T10:20:47.328Z,1693.00
2023-03-29T10:21:47.313Z,1698.00
2023-03-29T10:22:47.317Z,1632.00
2023-03-29T10:23:47.308Z,1712.00
2023-03-29T10:24:47.444Z,1785.00
2023-03-29T10:25:47.322Z,1373.00
2023-03-29T10:26:47.296Z,728.00
2023-03-29T10:27:47.313Z,605.00
2023-03-29T10:28:47.293Z,506.00
2023-03-29T10:29:47.277Z,484.00
2023-03-29T10:30:47.270Z,440.00
2023-03-29T10:31:47.309Z,495.00
2023-03-29T10:32:47.340Z,500.00
2023-03-29T10:33:47.241Z,498.00
2023-03-29T10:34:47.235Z,482.00
2023-03-29T10:35:47.262Z,503.00
2023-03-29T10:36:47.219Z,549.00
2023-03-29T10:37:47.220Z,598.00
2023-03-29T10:38:47.216Z,631.00
2023-03-29T10:39:47.218Z,663.00
2023-03-29T10:40:47.557Z,736.00
2023-03-29T10:41:47.215Z,785.00
2023-03-29T10:42:47.206Z,855.00
2023-03-29T10:43:47.216Z,865.00
2023-03-29T10:44:47.180Z,842.00
2023-03-29T10:45:47.224Z,925.00
2023-03-29T10:46:47.250Z,948.00
2023-03-29T10:47:47.225Z,941.00
2023-03-29T10:48:47.156Z,973.00
2023-03-29T10:50:47.140Z,1140.00
2023-03-29T10:51:47.120Z,1217.00
2023-03-29T10:52:47.137Z,1274.00
2023-03-29T10:53:47.106Z,1262.00
2023-03-29T10:54:47.104Z,1232.00
2023-03-29T10:55:47.095Z,1102.00
2023-03-29T10:56:47.128Z,1101.00
2023-03-29T10:57:47.111Z,1107.00
2023-03-29T10:58:47.090Z,1153.00
2023-03-29T10:59:47.457Z,1183.00
2023-03-29T11:00:47.081Z,1290.00
2023-03-29T11:01:47.137Z,1362.00
2023-03-29T11:02:47.121Z,1396.00
2023-03-29T11:03:47.224Z,1458.00
2023-03-29T11:04:47.476Z,1608.00
2023-03-29T11:05:47.036Z,1720.00
2023-03-29T11:06:47.036Z,1794.00
2023-03-29T11:07:47.012Z,1919.00
2023-03-29T11:08:47.025Z,1955.00
2023-03-29T11:09:47.063Z,2031.00
2023-03-29T11:10:47.098Z,2019.00
2023-03-29T11:11:47.164Z,2015.00
2023-03-29T11:12:47.198Z,2048.00
2023-03-29T11:13:47.235Z,2163.00
2023-03-29T11:14:47.449Z,1963.00
2023-03-29T11:15:47.488Z,1578.00
2023-03-29T11:16:47.400Z,1461.00
2023-03-29T11:17:47.532Z,1497.00
2023-03-29T11:18:47.435Z,1542.00
2023-03-29T11:19:47.475Z,1348.00
2023-03-29T11:20:47.513Z,1359.00
2023-03-29T11:21:47.549Z,1388.00
2023-03-29T11:22:47.623Z,1367.00
2023-03-29T11:23:47.690Z,1225.00
2023-03-29T11:24:47.728Z,1115.00
2023-03-29T11:25:47.745Z,931.00
2023-03-29T11:26:47.751Z,960.00
2023-03-29T11:27:47.767Z,781.00
2023-03-29T11:28:47.784Z,880.00
2023-03-29T11:29:47.783Z,1007.00
2023-03-29T11:30:47.900Z,882.00
2023-03-29T11:31:47.903Z,902.00
2023-03-29T11:32:47.879Z,988.00
2023-03-29T11:33:47.831Z,991.00
2023-03-29T11:34:47.818Z,1050.00
2023-03-29T11:35:47.865Z,1105.00
2023-03-29T11:36:47.828Z,1167.00
2023-03-29T11:37:47.830Z,1213.00
2023-03-29T11:38:47.832Z,1253.00
2023-03-29T11:39:47.849Z,1308.00
2023-03-29T11:40:47.877Z,1371.00
2023-03-29T11:41:47.888Z,1355.00
2023-03-29T11:42:47.946Z,1398.00
2023-03-29T11:43:48.031Z,1424.00
2023-03-29T11:44:48.064Z,1418.00
2023-03-29T11:45:48.167Z,1359.00
2023-03-29T11:46:48.227Z,1387.00
2023-03-29T11:47:48.250Z,1307.00
2023-03-29T11:48:48.325Z,1337.00
2023-03-29T11:49:48.353Z,1417.00
2023-03-29T11:50:48.410Z,1325.00
2023-03-29T11:51:48.485Z,1273.00
2023-03-29T11:52:48.539Z,1258.00
2023-03-29T11:53:48.598Z,1264.00
2023-03-29T11:54:48.653Z,1214.00
2023-03-29T11:55:48.985Z,1205.00
2023-03-29T11:56:48.872Z,1284.00
2023-03-29T11:57:48.978Z,1285.00
2023-03-29T11:58:48.913Z,1328.00
2023-03-29T11:59:48.906Z,1371.00
2023-03-29T12:00:48.941Z,1367.00
2023-03-29T12:01:49.029Z,1424.00
2023-03-29T12:02:49.579Z,1700.00
2023-03-29T12:03:49.161Z,1812.00
2023-03-29T12:04:49.126Z,1822.00
2023-03-29T12:05:49.167Z,1927.00
2023-03-29T12:06:49.214Z,1897.00
2023-03-29T12:07:49.224Z,1984.00